createdAt,value
2019-03-29T00:02:11.671Z,96649.28
2019-03-29T00:04:43.509Z,96646.66
2019-03-29T00:07:15.512Z,96646.61
2019-03-29T00:09:47.481Z,96639.78
2019-03-29T00:12:19.439Z,96643.52
2019-03-29T00:14:51.410Z,96651.48
2019-03-29T00:17:23.774Z,96644.75
2019-03-29T00:19:55.747Z,96643.35
2019-03-29T00:22:27.595Z,96644.73
2019-03-29T00:24:59.508Z,96636.94
2019-03-29T00:27:31.489Z,96646.69
2019-03-29T00:30:03.751Z,96639.05
2019-03-29T00:32:35.632Z,96640.16
2019-03-29T00:35:08.405Z,96638.02
2019-03-29T00:37:52.989Z,96639.34
2019-03-29T00:40:14.059Z,96636.94
2019-03-29T00:42:45.879Z,96630.02
2019-03-29T00:45:19.013Z,96641.17
2019-03-29T00:47:51.200Z,96634.31
2019-03-29T00:50:23.143Z,96629.16
2019-03-29T00:52:55.104Z,96621.20
2019-03-29T00:55:26.939Z,96625.00
2019-03-29T00:57:58.974Z,96620.11
2019-03-29T01:00:31.547Z,96620.45
2019-03-29T01:03:04.204Z,96617.92
2019-03-29T01:05:36.192Z,96620.10
2019-03-29T01:08:10.410Z,96622.55
2019-03-29T01:10:43.709Z,96622.09
2019-03-29T01:13:15.741Z,96623.64
2019-03-29T01:15:47.933Z,96615.30
2019-03-29T01:18:19.990Z,96614.97
2019-03-29T01:20:51.941Z,96615.77
2019-03-29T01:23:24.130Z,96614.25
2019-03-29T01:25:56.363Z,96617.69
2019-03-29T01:28:28.178Z,96615.07
2019-03-29T01:31:00.396Z,96614.00
2019-03-29T01:33:32.490Z,96614.09
2019-03-29T01:36:04.435Z,96603.73
2019-03-29T01:38:36.298Z,96601.69
2019-03-29T01:41:08.219Z,96607.41
2019-03-29T01:43:40.320Z,96599.21
2019-03-29T01:46:12.276Z,96602.25
2019-03-29T01:48:44.503Z,96599.47
2019-03-29T01:51:16.651Z,96601.56
2019-03-29T01:53:48.602Z,96597.92
2019-03-29T01:56:20.615Z,96596.45
2019-03-29T01:58:52.507Z,96594.86
2019-03-29T02:01:24.358Z,96593.86
2019-03-29T02:03:56.316Z,96601.47
2019-03-29T02:06:28.182Z,96591.98
2019-03-29T02:09:00.360Z,96594.94
2019-03-29T02:11:33.802Z,96592.59
2019-03-29T02:14:05.806Z,96589.90
2019-03-29T02:16:37.690Z,96591.91
2019-03-29T02:19:09.518Z,96591.12
2019-03-29T02:21:41.336Z,96579.41
2019-03-29T02:24:13.329Z,96581.20
2019-03-29T02:26:45.223Z,96583.33
2019-03-29T02:29:17.075Z,96588.09
2019-03-29T02:31:48.935Z,96589.81
2019-03-29T02:34:20.909Z,96589.44
2019-03-29T02:36:52.722Z,96581.64
2019-03-29T02:39:26.768Z,96583.67
2019-03-29T02:41:58.366Z,96581.34
2019-03-29T02:44:30.379Z,96582.50
2019-03-29T02:47:02.189Z,96577.23
2019-03-29T02:49:35.007Z,96577.89
2019-03-29T02:52:06.997Z,96577.55
2019-03-29T02:54:39.059Z,96583.94
2019-03-29T02:57:10.975Z,96578.60
2019-03-29T02:59:42.873Z,96579.97
2019-03-29T03:02:14.666Z,96571.83
2019-03-29T03:04:46.613Z,96580.55
2019-03-29T03:07:18.411Z,96579.27
2019-03-29T03:09:50.404Z,96572.85
2019-03-29T03:12:22.297Z,96581.00
2019-03-29T03:14:54.239Z,96586.13
2019-03-29T03:17:26.279Z,96587.78
2019-03-29T03:19:58.227Z,96593.95
2019-03-29T03:22:30.137Z,96593.30
2019-03-29T03:25:02.411Z,96592.30
2019-03-29T03:27:34.473Z,96587.48
2019-03-29T03:30:08.241Z,96593.17
2019-03-29T03:32:40.297Z,96590.09
2019-03-29T03:35:12.934Z,96597.09
2019-03-29T03:37:44.997Z,96587.90
2019-03-29T03:40:17.257Z,96593.67
2019-03-29T03:42:50.006Z,96590.16
2019-03-29T03:45:21.933Z,96584.73
2019-03-29T03:47:53.748Z,96585.65
2019-03-29T03:50:40.646Z,96583.98
2019-03-29T03:53:13.211Z,96578.42
2019-03-29T03:55:45.427Z,96586.92
2019-03-29T03:58:18.142Z,96585.33
2019-03-29T04:00:55.997Z,96587.95
2019-03-29T04:03:28.789Z,96592.18
2019-03-29T04:06:00.774Z,96589.69
2019-03-29T04:08:32.854Z,96587.73
2019-03-29T04:11:04.975Z,96583.66
2019-03-29T04:13:37.338Z,96584.25
2019-03-29T04:16:09.237Z,96577.86
2019-03-29T04:18:41.189Z,96579.33
2019-03-29T04:21:13.138Z,96585.41
2019-03-29T04:23:45.232Z,96587.74
2019-03-29T04:26:17.069Z,96590.38
2019-03-29T04:29:03.359Z,96581.28
2019-03-29T04:31:22.829Z,96576.72
2019-03-29T04:33:55.177Z,96581.59
2019-03-29T04:36:27.175Z,96573.16
2019-03-29T04:38:59.135Z,96570.06
2019-03-29T04:41:30.988Z,96573.38
2019-03-29T04:44:04.382Z,96568.49
2019-03-29T04:46:36.666Z,96571.63
2019-03-29T04:49:08.823Z,96567.28
2019-03-29T04:51:40.657Z,96569.25
2019-03-29T04:54:13.785Z,96569.75
2019-03-29T04:56:45.680Z,96568.35
2019-03-29T04:59:17.533Z,96564.61
2019-03-29T05:01:49.554Z,96566.06
2019-03-29T05:04:21.638Z,96558.76
2019-03-29T05:06:53.583Z,96565.84
2019-03-29T05:09:25.467Z,96562.98
2019-03-29T05:11:57.331Z,96565.13
2019-03-29T05:14:29.147Z,96570.91
2019-03-29T05:17:00.973Z,96568.36
2019-03-29T05:19:32.803Z,96566.72
2019-03-29T05:22:04.687Z,96561.63
2019-03-29T05:24:36.708Z,96558.09
2019-03-29T05:27:08.751Z,96566.83
2019-03-29T05:29:40.646Z,96562.92
2019-03-29T05:32:12.651Z,96563.39
2019-03-29T05:34:44.730Z,96567.67
2019-03-29T05:37:17.597Z,96561.11
2019-03-29T05:39:49.433Z,96560.05
2019-03-29T05:42:22.311Z,96563.22
2019-03-29T05:44:54.293Z,96563.88
2019-03-29T05:47:26.254Z,96577.07
2019-03-29T05:49:58.156Z,96575.92
2019-03-29T05:52:30.164Z,96577.42
2019-03-29T05:55:02.308Z,96575.83
2019-03-29T05:57:34.226Z,96575.83
2019-03-29T06:00:07.092Z,96572.16
2019-03-29T06:02:39.097Z,96567.75
2019-03-29T06:05:11.721Z,96567.79
2019-03-29T06:07:43.587Z,96567.39
2019-03-29T06:10:15.531Z,96556.30
2019-03-29T06:12:47.498Z,96560.73
2019-03-29T06:15:19.459Z,96560.94
2019-03-29T06:17:51.488Z,96558.53
2019-03-29T06:20:24.361Z,96561.84
2019-03-29T06:22:56.385Z,96569.63
2019-03-29T06:25:28.213Z,96570.63
2019-03-29T06:28:00.024Z,96582.66
2019-03-29T06:30:33.106Z,96582.09
2019-03-29T06:33:05.133Z,96580.27
2019-03-29T06:35:41.389Z,96575.43
2019-03-29T06:38:13.928Z,96565.96
2019-03-29T06:40:47.060Z,96581.83
2019-03-29T06:43:19.044Z,96581.08
2019-03-29T06:45:50.975Z,96579.51
2019-03-29T06:48:23.199Z,96579.94
2019-03-29T06:50:55.190Z,96589.53
2019-03-29T06:53:27.198Z,96587.22
2019-03-29T06:55:59.507Z,96598.56
2019-03-29T06:58:31.642Z,96594.28
2019-03-29T07:01:03.609Z,96589.27
2019-03-29T07:03:35.512Z,96583.98
2019-03-29T07:06:07.486Z,96579.69
2019-03-29T07:08:39.468Z,96577.84
2019-03-29T07:11:17.781Z,96576.84
2019-03-29T07:13:56.821Z,96567.06
2019-03-29T07:16:18.868Z,96563.51
2019-03-29T07:18:51.224Z,96564.03
2019-03-29T07:21:23.156Z,96560.27
2019-03-29T07:23:56.210Z,96568.77
2019-03-29T07:26:28.021Z,96566.27
2019-03-29T07:28:59.927Z,96563.46
2019-03-29T07:31:31.850Z,96566.98
2019-03-29T07:34:04.119Z,96564.39
2019-03-29T07:36:36.015Z,96564.05
2019-03-29T07:39:08.551Z,96549.47
2019-03-29T07:41:40.345Z,96543.19
2019-03-29T07:44:12.174Z,96542.72
2019-03-29T07:46:44.252Z,96539.84
2019-03-29T07:49:16.243Z,96544.28
2019-03-29T07:51:48.117Z,96536.59
2019-03-29T07:54:20.204Z,96542.24
2019-03-29T07:56:52.076Z,96527.66
2019-03-29T07:59:24.255Z,96536.20
2019-03-29T08:01:56.232Z,96535.53
2019-03-29T08:04:28.055Z,96539.84
2019-03-29T08:06:59.974Z,96532.91
2019-03-29T08:09:31.982Z,96532.01
2019-03-29T08:12:03.945Z,96524.95
2019-03-29T08:14:35.830Z,96522.75
2019-03-29T08:17:07.806Z,96526.02
2019-03-29T08:19:39.783Z,96518.66
2019-03-29T08:22:11.937Z,96523.19
2019-03-29T08:24:44.014Z,96524.87
2019-03-29T08:27:17.042Z,96529.98
2019-03-29T08:29:49.024Z,96525.27
2019-03-29T08:32:21.003Z,96533.70
2019-03-29T08:34:52.991Z,96528.05
2019-03-29T08:37:25.098Z,96526.42
2019-03-29T08:39:56.949Z,96522.66
2019-03-29T08:42:29.035Z,96521.92
2019-03-29T08:45:01.036Z,96521.09
2019-03-29T08:47:32.930Z,96520.22
2019-03-29T08:50:05.755Z,96518.41
2019-03-29T08:52:37.718Z,96516.86
2019-03-29T08:55:10.615Z,96518.09
2019-03-29T08:57:42.524Z,96523.22
2019-03-29T09:00:17.738Z,96514.95
2019-03-29T09:02:49.907Z,96516.92
2019-03-29T09:05:21.836Z,96516.80
2019-03-29T09:07:54.057Z,96526.77
2019-03-29T09:10:27.487Z,96516.16
2019-03-29T09:12:59.331Z,96516.97
2019-03-29T09:15:31.207Z,96505.60
2019-03-29T09:18:03.586Z,96502.75
2019-03-29T09:20:35.593Z,96513.84
2019-03-29T09:23:10.288Z,96513.92
2019-03-29T09:25:41.286Z,96507.73
2019-03-29T09:28:13.316Z,96497.45
2019-03-29T09:30:45.255Z,96497.95
2019-03-29T09:33:17.099Z,96507.20
2019-03-29T09:35:49.309Z,96500.64
2019-03-29T09:38:21.292Z,96508.59
2019-03-29T09:40:58.656Z,96510.37
2019-03-29T09:43:27.390Z,96497.88
2019-03-29T09:46:02.997Z,96505.52
2019-03-29T09:48:34.556Z,96495.45
2019-03-29T09:51:07.051Z,96494.49
2019-03-29T09:53:41.132Z,96479.95
2019-03-29T09:56:14.083Z,96489.28
2019-03-29T09:58:45.890Z,96493.54
2019-03-29T10:01:20.802Z,96486.72
2019-03-29T10:03:51.550Z,96496.05
2019-03-29T10:06:23.372Z,96490.81
2019-03-29T10:08:55.266Z,96480.39
2019-03-29T10:11:27.240Z,96478.77
2019-03-29T10:13:59.136Z,96474.38
2019-03-29T10:16:30.964Z,96471.43
2019-03-29T10:19:02.814Z,96470.39
2019-03-29T10:21:34.793Z,96463.47
2019-03-29T10:24:06.772Z,96475.67
2019-03-29T10:26:39.755Z,96472.72
2019-03-29T10:29:11.751Z,96467.38
2019-03-29T10:31:43.779Z,96456.22
2019-03-29T10:34:15.707Z,96450.91
2019-03-29T10:36:47.697Z,96456.61
2019-03-29T10:39:20.847Z,96458.66
2019-03-29T10:41:52.990Z,96458.56
2019-03-29T10:44:24.979Z,96454.03
2019-03-29T10:46:57.157Z,96441.97
2019-03-29T10:49:29.312Z,96435.23
2019-03-29T10:52:01.308Z,96435.81
2019-03-29T10:54:33.148Z,96432.74
2019-03-29T10:57:05.115Z,96434.77
2019-03-29T10:59:37.123Z,96438.77
2019-03-29T11:02:09.113Z,96438.03
2019-03-29T11:04:42.063Z,96434.80
2019-03-29T11:07:14.041Z,96431.88
2019-03-29T11:09:46.049Z,96420.88
2019-03-29T11:12:17.930Z,96424.30
2019-03-29T11:14:49.876Z,96420.72
2019-03-29T11:17:21.812Z,96429.52
2019-03-29T11:19:53.715Z,96423.97
2019-03-29T11:22:25.711Z,96413.48
2019-03-29T11:24:57.599Z,96406.80
2019-03-29T11:27:29.610Z,96423.34
2019-03-29T11:30:01.464Z,96415.39
2019-03-29T11:32:34.625Z,96412.39
2019-03-29T11:35:06.884Z,96410.68
2019-03-29T11:37:38.705Z,96410.91
2019-03-29T11:40:11.053Z,96415.38
2019-03-29T11:42:44.026Z,96411.03
2019-03-29T11:45:16.183Z,96406.84
2019-03-29T11:47:48.215Z,96402.54
2019-03-29T11:50:20.301Z,96402.42
2019-03-29T11:52:52.298Z,96397.34
2019-03-29T11:55:24.281Z,96401.80
2019-03-29T11:57:57.190Z,96401.94
2019-03-29T12:00:40.647Z,96399.75
2019-03-29T12:03:13.156Z,96399.19
2019-03-29T12:05:45.221Z,96391.98
2019-03-29T12:08:17.272Z,96394.99
2019-03-29T12:10:49.226Z,96391.52
2019-03-29T12:13:21.220Z,96390.56
2019-03-29T12:15:53.210Z,96382.65
2019-03-29T12:18:25.230Z,96383.32
2019-03-29T12:20:57.167Z,96378.86
2019-03-29T12:23:29.438Z,96372.44
2019-03-29T12:26:01.359Z,96374.30
2019-03-29T12:28:33.259Z,96374.50
2019-03-29T12:31:05.063Z,96367.56
2019-03-29T12:33:36.983Z,96364.33
2019-03-29T12:36:08.797Z,96356.29
2019-03-29T12:38:40.700Z,96357.78
2019-03-29T12:41:12.518Z,96355.56
2019-03-29T12:43:54.878Z,96358.02
2019-03-29T12:46:18.037Z,96344.06
2019-03-29T12:48:50.457Z,96345.27
2019-03-29T12:51:22.871Z,96360.80
2019-03-29T12:53:54.956Z,96356.23
2019-03-29T12:56:27.105Z,96353.19
2019-03-29T12:58:59.011Z,96348.71
2019-03-29T13:01:39.429Z,96347.40
2019-03-29T13:04:04.685Z,96349.72
2019-03-29T13:06:36.787Z,96348.74
2019-03-29T13:09:09.721Z,96355.37
2019-03-29T13:11:41.748Z,96341.20
2019-03-29T13:14:13.571Z,96353.73
2019-03-29T13:16:45.470Z,96337.78
2019-03-29T13:19:17.411Z,96345.99
2019-03-29T13:21:49.425Z,96340.13
2019-03-29T13:24:21.346Z,96332.41
2019-03-29T13:26:54.418Z,96332.60
2019-03-29T13:29:26.434Z,96332.56
2019-03-29T13:31:58.530Z,96328.75
2019-03-29T13:34:30.371Z,96327.41
2019-03-29T13:37:02.447Z,96319.52
2019-03-29T13:39:34.393Z,96314.70
2019-03-29T13:42:06.289Z,96311.68
2019-03-29T13:44:38.163Z,96311.25
2019-03-29T13:47:10.139Z,96303.55
2019-03-29T13:49:42.253Z,96299.41
2019-03-29T13:52:14.216Z,96301.88
2019-03-29T13:54:46.193Z,96294.91
2019-03-29T13:57:18.040Z,96290.55
2019-03-29T13:59:50.039Z,96289.61
2019-03-29T14:02:22.236Z,96287.13
2019-03-29T14:04:54.258Z,96285.75
2019-03-29T14:07:26.190Z,96279.88
2019-03-29T14:09:58.096Z,96293.76
2019-03-29T14:12:30.100Z,96287.06
2019-03-29T14:15:02.993Z,96284.98
2019-03-29T14:17:36.008Z,96285.09
2019-03-29T14:20:09.764Z,96273.88
2019-03-29T14:22:41.725Z,96272.16
2019-03-29T14:25:14.010Z,96274.58
2019-03-29T14:27:45.947Z,96269.94
2019-03-29T14:30:18.168Z,96261.25
2019-03-29T14:32:49.986Z,96264.84
2019-03-29T14:35:22.026Z,96263.22
2019-03-29T14:37:54.194Z,96256.93
2019-03-29T14:40:26.208Z,96258.30
2019-03-29T14:42:58.277Z,96255.12
2019-03-29T14:45:30.298Z,96250.47
2019-03-29T14:48:02.597Z,96249.11
2019-03-29T14:50:34.545Z,96243.39
2019-03-29T14:53:06.648Z,96243.06
2019-03-29T14:55:38.829Z,96240.45
2019-03-29T14:58:10.982Z,96247.23
2019-03-29T15:00:48.375Z,96236.77
2019-03-29T15:03:18.836Z,96236.30
2019-03-29T15:05:51.200Z,96230.62
2019-03-29T15:08:23.023Z,96237.32
2019-03-29T15:10:54.905Z,96229.30
2019-03-29T15:13:26.823Z,96224.31
2019-03-29T15:15:58.888Z,96229.12
2019-03-29T15:18:31.075Z,96223.95
2019-03-29T15:21:02.968Z,96217.31
2019-03-29T15:23:34.916Z,96225.09
2019-03-29T15:26:06.869Z,96223.59
2019-03-29T15:28:38.757Z,96212.47
2019-03-29T15:31:10.733Z,96217.70
2019-03-29T15:33:42.767Z,96217.62
2019-03-29T15:36:14.772Z,96212.50
2019-03-29T15:38:46.661Z,96209.33
2019-03-29T15:41:18.665Z,96214.78
2019-03-29T15:43:50.501Z,96215.17
2019-03-29T15:46:22.558Z,96208.91
2019-03-29T15:48:54.448Z,96213.50
2019-03-29T15:51:26.492Z,96214.58
2019-03-29T15:53:58.407Z,96213.36
2019-03-29T15:56:31.441Z,96209.72
2019-03-29T15:59:03.403Z,96210.09
2019-03-29T16:01:35.245Z,96208.78
2019-03-29T16:04:07.355Z,96206.95
2019-03-29T16:06:39.375Z,96200.22
2019-03-29T16:09:11.276Z,96204.75
2019-03-29T16:11:43.397Z,96207.32
2019-03-29T16:14:16.428Z,96206.86
2019-03-29T16:16:48.387Z,96199.52
2019-03-29T16:19:20.187Z,96202.00
2019-03-29T16:21:52.113Z,96206.39
2019-03-29T16:24:24.205Z,96206.45
2019-03-29T16:26:56.079Z,96201.89
2019-03-29T16:29:27.958Z,96202.55
2019-03-29T16:31:59.784Z,96210.21
2019-03-29T16:34:31.706Z,96208.22
2019-03-29T16:37:03.540Z,96210.44
2019-03-29T16:39:35.403Z,96214.98
2019-03-29T16:42:07.582Z,96215.94
2019-03-29T16:44:39.557Z,96216.35
2019-03-29T16:47:11.770Z,96204.26
2019-03-29T16:49:43.750Z,96209.54
2019-03-29T16:52:15.840Z,96211.52
2019-03-29T16:54:47.861Z,96206.30
2019-03-29T16:57:19.836Z,96208.34
2019-03-29T16:59:52.710Z,96211.35
2019-03-29T17:02:24.673Z,96208.61
2019-03-29T17:04:56.608Z,96208.88
2019-03-29T17:07:28.506Z,96205.69
2019-03-29T17:10:00.657Z,96206.13
2019-03-29T17:12:32.465Z,96205.22
2019-03-29T17:15:04.709Z,96200.08
2019-03-29T17:17:36.967Z,96208.95
2019-03-29T17:20:10.566Z,96211.11
2019-03-29T17:22:43.474Z,96206.61
2019-03-29T17:25:15.825Z,96205.94
2019-03-29T17:27:47.811Z,96203.33
2019-03-29T17:30:35.543Z,96199.37
2019-03-29T17:33:07.433Z,96205.37
2019-03-29T17:35:39.242Z,96202.48
2019-03-29T17:38:11.191Z,96201.39
2019-03-29T17:40:43.026Z,96209.86
2019-03-29T17:43:14.998Z,96200.98
2019-03-29T17:45:47.273Z,96201.30
2019-03-29T17:48:19.259Z,96206.03
2019-03-29T17:50:51.263Z,96207.26
2019-03-29T17:53:23.077Z,96204.80
2019-03-29T17:55:55.150Z,96204.20
2019-03-29T17:58:26.972Z,96205.61
2019-03-29T18:00:58.919Z,96211.83
2019-03-29T18:03:30.904Z,96214.88
2019-03-29T18:06:02.861Z,96219.38
2019-03-29T18:08:34.820Z,96220.47
2019-03-29T18:11:06.859Z,96228.22
2019-03-29T18:13:38.812Z,96225.69
2019-03-29T18:16:10.837Z,96230.09
2019-03-29T18:18:42.803Z,96227.87
2019-03-29T18:21:14.824Z,96229.80
2019-03-29T18:23:46.747Z,96243.14
2019-03-29T18:26:18.671Z,96244.67
2019-03-29T18:28:51.757Z,96236.52
2019-03-29T18:31:23.809Z,96246.12
2019-03-29T18:33:55.870Z,96254.27
2019-03-29T18:36:28.234Z,96245.30
2019-03-29T18:39:00.344Z,96252.96
2019-03-29T18:41:32.322Z,96248.26
2019-03-29T18:44:04.259Z,96259.39
2019-03-29T18:46:44.443Z,96256.64
2019-03-29T18:49:09.752Z,96248.01
2019-03-29T18:51:41.671Z,96251.81
2019-03-29T18:54:13.759Z,96256.77
2019-03-29T18:56:45.781Z,96260.33
2019-03-29T18:59:17.755Z,96255.00
2019-03-29T19:01:49.632Z,96255.23
2019-03-29T19:04:21.633Z,96258.54
2019-03-29T19:06:53.511Z,96258.39
2019-03-29T19:09:25.476Z,96259.61
2019-03-29T19:11:57.336Z,96264.34
2019-03-29T19:14:29.312Z,96260.32
2019-03-29T19:17:01.309Z,96261.13
2019-03-29T19:19:33.273Z,96259.73
2019-03-29T19:22:05.366Z,96261.04
2019-03-29T19:24:37.238Z,96263.88
2019-03-29T19:27:09.275Z,96259.71
2019-03-29T19:29:41.232Z,96254.73
2019-03-29T19:32:13.076Z,96254.04
2019-03-29T19:34:45.258Z,96249.30
2019-03-29T19:37:17.114Z,96245.28
2019-03-29T19:39:49.179Z,96240.77
2019-03-29T19:42:21.243Z,96241.23
2019-03-29T19:44:53.303Z,96247.47
2019-03-29T19:47:25.466Z,96242.30
2019-03-29T19:49:57.543Z,96251.52
2019-03-29T19:52:29.558Z,96244.42
2019-03-29T19:55:01.984Z,96256.09
2019-03-29T19:57:34.299Z,96255.88
2019-03-29T20:00:09.405Z,96249.59
2019-03-29T20:02:41.378Z,96255.00
2019-03-29T20:05:28.070Z,96258.69
2019-03-29T20:08:00.445Z,96252.98
2019-03-29T20:10:32.496Z,96252.17
2019-03-29T20:13:04.796Z,96251.69
2019-03-29T20:15:36.752Z,96250.40
2019-03-29T20:18:08.850Z,96247.47
2019-03-29T20:20:40.839Z,96250.16
2019-03-29T20:23:12.765Z,96247.32
2019-03-29T20:25:44.673Z,96246.48
2019-03-29T20:28:16.649Z,96240.26
2019-03-29T20:30:48.655Z,96240.94
2019-03-29T20:33:20.793Z,96242.50
2019-03-29T20:35:52.770Z,96242.23
2019-03-29T20:38:24.768Z,96242.87
2019-03-29T20:40:56.756Z,96245.42
2019-03-29T20:43:28.848Z,96247.62
2019-03-29T20:46:00.802Z,96246.81
2019-03-29T20:48:32.865Z,96246.92
2019-03-29T20:51:04.820Z,96246.58
2019-03-29T20:53:36.788Z,96241.20
2019-03-29T20:56:08.659Z,96244.05
2019-03-29T20:58:40.561Z,96241.88
2019-03-29T21:01:12.655Z,96236.48
2019-03-29T21:03:44.851Z,96239.08
2019-03-29T21:06:16.711Z,96232.84
2019-03-29T21:08:48.734Z,96236.63
2019-03-29T21:11:20.717Z,96250.19
2019-03-29T21:13:52.690Z,96253.88
2019-03-29T21:16:24.504Z,96248.60
2019-03-29T21:18:56.339Z,96247.20
2019-03-29T21:21:28.356Z,96240.36
2019-03-29T21:24:00.203Z,96234.05
2019-03-29T21:26:32.079Z,96226.66
2019-03-29T21:29:04.130Z,96231.45
2019-03-29T21:31:36.326Z,96229.63
2019-03-29T21:34:08.310Z,96236.69
2019-03-29T21:36:40.273Z,96233.78
2019-03-29T21:39:14.581Z,96235.96
2019-03-29T21:41:46.528Z,96230.88
2019-03-29T21:44:18.495Z,96227.13
2019-03-29T21:46:50.558Z,96225.02
2019-03-29T21:49:22.447Z,96226.30
2019-03-29T21:51:54.340Z,96221.37
2019-03-29T21:54:27.571Z,96223.64
2019-03-29T21:56:59.534Z,96221.84
2019-03-29T21:59:31.457Z,96218.58
2019-03-29T22:02:03.293Z,96218.60
2019-03-29T22:04:35.307Z,96217.58
2019-03-29T22:07:07.309Z,96217.99
2019-03-29T22:09:39.149Z,96217.01
2019-03-29T22:12:10.966Z,96218.63
2019-03-29T22:14:42.795Z,96207.42
2019-03-29T22:17:14.622Z,96207.16
2019-03-29T22:19:46.524Z,96208.48
2019-03-29T22:22:18.536Z,96200.13
2019-03-29T22:24:50.436Z,96209.09
2019-03-29T22:27:22.552Z,96201.09
2019-03-29T22:29:54.645Z,96194.20
2019-03-29T22:32:26.505Z,96195.40
2019-03-29T22:34:58.544Z,96190.26
2019-03-29T22:37:30.334Z,96187.62
2019-03-29T22:40:02.414Z,96191.83
2019-03-29T22:42:34.579Z,96178.36
2019-03-29T22:45:09.696Z,96176.42
2019-03-29T22:47:41.667Z,96180.83
2019-03-29T22:50:13.838Z,96186.20
2019-03-29T22:52:45.775Z,96180.17
2019-03-29T22:55:17.769Z,96174.42
2019-03-29T22:57:49.678Z,96170.89
2019-03-29T23:00:32.854Z,96166.71
2019-03-29T23:03:07.221Z,96173.55
2019-03-29T23:05:39.833Z,96163.66
2019-03-29T23:08:11.967Z,96165.69
2019-03-29T23:10:45.180Z,96171.49
2019-03-29T23:13:17.043Z,96180.45
2019-03-29T23:15:49.355Z,96168.36
2019-03-29T23:18:21.409Z,96160.42
2019-03-29T23:20:53.375Z,96158.02
2019-03-29T23:23:25.235Z,96153.58
2019-03-29T23:25:57.400Z,96149.69
2019-03-29T23:28:29.643Z,96149.05
2019-03-29T23:31:01.455Z,96155.07
2019-03-29T23:33:33.679Z,96148.22
2019-03-29T23:36:05.936Z,96145.11
2019-03-29T23:38:37.811Z,96142.98
2019-03-29T23:41:09.906Z,96141.39
2019-03-29T23:43:41.767Z,96139.09
2019-03-29T23:46:13.928Z,96142.60
2019-03-29T23:48:46.073Z,96141.05
2019-03-29T23:51:18.000Z,96149.17
2019-03-29T23:53:50.047Z,96148.05
2019-03-29T23:56:21.960Z,96159.70
2019-03-29T23:58:54.011Z,96151.02
